Folla — LLPD — position and weather

sailwx.info

Track history (hours):
 
Tides and Currents Weather Stations Pressure Air Temp Water Temp Dewpoint Dewpoint Depression Visibility Wind Speed Wind Dir Waves Ship Positions

Folla

Last reported at 2014-Jul-23 08:10 UTC. Time now 2014-Jul-23 14:02 UTC.
Position N 64°47' E 011°05'.

Length 52 m; draft 5 m.

Type: Cargo ship. MMSI: 258253000.

Date/timePositionNaut miles runAvg speedWind from/ knotsBaromVisibWave heightAir tempDewpointWater temp
2014-Jul-23 08:10N 64°47' E 011°05'6 9.4
2014-Jul-23 07:33N 64°52' E 011°14'0 0.3
2014-Jul-23 06:33N 64°52' E 011°14'0 0.0
2014-Jul-23 05:33N 64°52' E 011°14'0 0.0
2014-Jul-23 04:33N 64°52' E 011°14'0 0.0
2014-Jul-23 03:33N 64°52' E 011°14'0 0.0
2014-Jul-23 02:33N 64°52' E 011°14'0 0.0
2014-Jul-23 01:33N 64°52' E 011°14'0 0.0
2014-Jul-23 00:33N 64°52' E 011°14'0 0.0
2014-Jul-22 23:33N 64°52' E 011°14'0 0.0
2014-Jul-22 22:33N 64°52' E 011°14'0 0.0
2014-Jul-22 21:33N 64°52' E 011°14'0 0.0
2014-Jul-22 20:33N 64°52' E 011°14'0 0.0
2014-Jul-22 19:33N 64°52' E 011°14'0 0.0
2014-Jul-22 18:33N 64°52' E 011°14'0 0.0
2014-Jul-22 17:33N 64°52' E 011°14'0 0.0
2014-Jul-22 16:33N 64°52' E 011°14'0 0.0
2014-Jul-22 15:33N 64°52' E 011°14'0 0.0
2014-Jul-22 14:33N 64°52' E 011°14'0 0.0
2014-Jul-22 13:33N 64°52' E 011°14'0 0.3
2014-Jul-22 12:33N 64°52' E 011°15'0 0.0
2014-Jul-22 11:33N 64°52' E 011°15'1010.2
2014-Jul-22 10:33N 64°59' E 011°32'7111.0
2014-Jul-22 04:09N 66°04' E 012°38'711.5
2014-Jul-22 03:33N 66°08' E 012°51'8 7.1
2014-Jul-22 02:22N 66°17' E 012°56'1011.6
2014-Jul-22 01:28N 66°27' E 012°59'1010.4
2014-Jul-22 00:33N 66°36' E 013°04'20 8.9
2014-Jul-21 22:18N 66°54' E 013°27'8 9.8
2014-Jul-21 21:30N 66°59' E 013°42'13 4.0
2014-Jul-21 18:12N 67°10' E 014°03'711.3
2014-Jul-21 17:33N 67°15' E 014°15'3 3.5
2014-Jul-21 16:33N 67°17' E 014°22'1110.5
2014-Jul-21 15:33N 67°27' E 014°28'  
2014-Jul-18 11:22N 67°23' E 013°51'1011.4
2014-Jul-18 10:31N 67°14' E 013°41'3811.1
2014-Jul-18 07:07N 66°42' E 012°53'1011.1
2014-Jul-18 06:14N 66°33' E 012°45'911.1
2014-Jul-18 05:26N 66°24' E 012°47'1 0.8
2014-Jul-18 04:33N 66°24' E 012°49'5 5.0
2014-Jul-18 03:33N 66°24' E 012°36'5 5.5
2014-Jul-18 02:33N 66°21' E 012°24'10 9.5
2014-Jul-18 01:27N 66°13' E 012°38'77 9.6
2014-Jul-17 17:24N 64°60' E 011°36'910.6
2014-Jul-17 16:33N 64°54' E 011°20'9 0.3
2014-Jul-16 08:28N 64°47' E 011°05'6 6.2
2014-Jul-16 07:33N 64°52' E 011°14'0 0.0
2014-Jul-16 06:33N 64°52' E 011°14'0 0.0
2014-Jul-16 05:33N 64°52' E 011°14'0 0.0
2014-Jul-16 04:34N 64°52' E 011°14'0 0.0
2014-Jul-16 03:33N 64°52' E 011°14'0 0.0
2014-Jul-16 02:33N 64°52' E 011°14'0 0.0
2014-Jul-16 01:33N 64°52' E 011°14'0 0.0
2014-Jul-16 00:33N 64°52' E 011°14'0 0.0
2014-Jul-15 23:34N 64°52' E 011°14'0 0.0
2014-Jul-15 22:33N 64°52' E 011°14'0 0.0
2014-Jul-15 21:33N 64°52' E 011°14'0 0.0
2014-Jul-15 20:33N 64°52' E 011°14'0 0.0
2014-Jul-15 19:33N 64°52' E 011°14'0 0.0
2014-Jul-15 18:33N 64°52' E 011°14'0 0.0
2014-Jul-15 17:33N 64°52' E 011°14'0 0.0
2014-Jul-15 16:33N 64°52' E 011°14'0 0.0
2014-Jul-15 15:33N 64°52' E 011°14'0 0.0
2014-Jul-15 14:33N 64°52' E 011°14'0 0.0
2014-Jul-15 13:33N 64°52' E 011°14'0 0.0
2014-Jul-15 12:33N 64°52' E 011°14'0 0.0
2014-Jul-15 11:33N 64°52' E 011°14'0 0.0
2014-Jul-15 10:33N 64°52' E 011°14'0 0.0
2014-Jul-15 09:33N 64°52' E 011°14'0 0.0
2014-Jul-15 08:33N 64°52' E 011°14'0 0.0
2014-Jul-15 07:34N 64°52' E 011°14'0 0.0
2014-Jul-15 06:33N 64°52' E 011°14'0 0.0
2014-Jul-15 05:33N 64°52' E 011°14'0 0.0
2014-Jul-15 04:34N 64°52' E 011°14'0 0.0
2014-Jul-15 03:33N 64°52' E 011°14'0 0.0
2014-Jul-15 02:33N 64°52' E 011°14'0 0.0
2014-Jul-15 01:33N 64°52' E 011°14'0 0.0
2014-Jul-15 00:33N 64°52' E 011°14'0 0.0
2014-Jul-14 23:33N 64°52' E 011°14'0 0.0
2014-Jul-14 22:33N 64°52' E 011°14'0 0.0
2014-Jul-14 21:34N 64°52' E 011°14'0 0.0
2014-Jul-14 20:33N 64°52' E 011°14'0 0.0
2014-Jul-14 19:34N 64°52' E 011°14'0 0.0
2014-Jul-14 18:33N 64°52' E 011°14'0 0.0
2014-Jul-14 17:34N 64°52' E 011°14'0 0.0
2014-Jul-14 16:33N 64°52' E 011°14'0 0.0
2014-Jul-14 15:33N 64°52' E 011°14'0 0.0
2014-Jul-14 14:33N 64°52' E 011°14'0 0.0
2014-Jul-14 13:33N 64°52' E 011°14'0 0.0
2014-Jul-14 12:33N 64°52' E 011°14'0 0.3
2014-Jul-14 11:33N 64°52' E 011°15'0 0.0
2014-Jul-14 10:33N 64°52' E 011°15'4 4.4
2014-Jul-14 09:33N 64°55' E 011°22'1110.8
2014-Jul-14 08:33N 65°02' E 011°41'1110.6
2014-Jul-14 07:31N 65°12' E 011°52'5510.9
2014-Jul-14 02:27N 66°04' E 012°39'16 8.2
2014-Jul-14 00:33N 66°18' E 012°56'1110.8
2014-Jul-13 23:33N 66°29' E 012°59'  
Track history (hours):
 
Tides and Currents Weather Stations Pressure Air Temp Water Temp Dewpoint Dewpoint Depression Visibility Wind Speed Wind Dir Waves Ship Positions

Folla

Last reported at 2014-Jul-23 08:10 UTC. Time now 2014-Jul-23 14:02 UTC.
Position N 64°47' E 011°05'.

Length 52 m; draft 5 m.

Type: Cargo ship. MMSI: 258253000.

Date/timePositionNaut miles runAvg speedWind from/ knotsBaromVisibWave heightAir tempDewpointWater temp
2014-Jul-23 08:10N 64°47' E 011°05'6 9.4
2014-Jul-23 07:33N 64°52' E 011°14'0 0.3
2014-Jul-23 06:33N 64°52' E 011°14'0 0.0
2014-Jul-23 05:33N 64°52' E 011°14'0 0.0
2014-Jul-23 04:33N 64°52' E 011°14'0 0.0
2014-Jul-23 03:33N 64°52' E 011°14'0 0.0
2014-Jul-23 02:33N 64°52' E 011°14'0 0.0
2014-Jul-23 01:33N 64°52' E 011°14'0 0.0
2014-Jul-23 00:33N 64°52' E 011°14'0 0.0
2014-Jul-22 23:33N 64°52' E 011°14'0 0.0
2014-Jul-22 22:33N 64°52' E 011°14'0 0.0
2014-Jul-22 21:33N 64°52' E 011°14'0 0.0
2014-Jul-22 20:33N 64°52' E 011°14'0 0.0
2014-Jul-22 19:33N 64°52' E 011°14'0 0.0
2014-Jul-22 18:33N 64°52' E 011°14'0 0.0
2014-Jul-22 17:33N 64°52' E 011°14'0 0.0
2014-Jul-22 16:33N 64°52' E 011°14'0 0.0
2014-Jul-22 15:33N 64°52' E 011°14'0 0.0
2014-Jul-22 14:33N 64°52' E 011°14'0 0.0
2014-Jul-22 13:33N 64°52' E 011°14'0 0.3
2014-Jul-22 12:33N 64°52' E 011°15'0 0.0
2014-Jul-22 11:33N 64°52' E 011°15'1010.2
2014-Jul-22 10:33N 64°59' E 011°32'7111.0
2014-Jul-22 04:09N 66°04' E 012°38'711.5
2014-Jul-22 03:33N 66°08' E 012°51'8 7.1
2014-Jul-22 02:22N 66°17' E 012°56'1011.6
2014-Jul-22 01:28N 66°27' E 012°59'1010.4
2014-Jul-22 00:33N 66°36' E 013°04'20 8.9
2014-Jul-21 22:18N 66°54' E 013°27'8 9.8
2014-Jul-21 21:30N 66°59' E 013°42'13 4.0
2014-Jul-21 18:12N 67°10' E 014°03'711.3
2014-Jul-21 17:33N 67°15' E 014°15'3 3.5
2014-Jul-21 16:33N 67°17' E 014°22'1110.5
2014-Jul-21 15:33N 67°27' E 014°28'  
2014-Jul-18 11:22N 67°23' E 013°51'1011.4
2014-Jul-18 10:31N 67°14' E 013°41'3811.1
2014-Jul-18 07:07N 66°42' E 012°53'1011.1
2014-Jul-18 06:14N 66°33' E 012°45'911.1
2014-Jul-18 05:26N 66°24' E 012°47'1 0.8
2014-Jul-18 04:33N 66°24' E 012°49'5 5.0
2014-Jul-18 03:33N 66°24' E 012°36'5 5.5
2014-Jul-18 02:33N 66°21' E 012°24'10 9.5
2014-Jul-18 01:27N 66°13' E 012°38'77 9.6
2014-Jul-17 17:24N 64°60' E 011°36'910.6
2014-Jul-17 16:33N 64°54' E 011°20'9 0.3
2014-Jul-16 08:28N 64°47' E 011°05'6 6.2
2014-Jul-16 07:33N 64°52' E 011°14'0 0.0
2014-Jul-16 06:33N 64°52' E 011°14'0 0.0
2014-Jul-16 05:33N 64°52' E 011°14'0 0.0
2014-Jul-16 04:34N 64°52' E 011°14'0 0.0
2014-Jul-16 03:33N 64°52' E 011°14'0 0.0
2014-Jul-16 02:33N 64°52' E 011°14'0 0.0
2014-Jul-16 01:33N 64°52' E 011°14'0 0.0
2014-Jul-16 00:33N 64°52' E 011°14'0 0.0
2014-Jul-15 23:34N 64°52' E 011°14'0 0.0
2014-Jul-15 22:33N 64°52' E 011°14'0 0.0
2014-Jul-15 21:33N 64°52' E 011°14'0 0.0
2014-Jul-15 20:33N 64°52' E 011°14'0 0.0
2014-Jul-15 19:33N 64°52' E 011°14'0 0.0
2014-Jul-15 18:33N 64°52' E 011°14'0 0.0
2014-Jul-15 17:33N 64°52' E 011°14'0 0.0
2014-Jul-15 16:33N 64°52' E 011°14'0 0.0
2014-Jul-15 15:33N 64°52' E 011°14'0 0.0
2014-Jul-15 14:33N 64°52' E 011°14'0 0.0
2014-Jul-15 13:33N 64°52' E 011°14'0 0.0
2014-Jul-15 12:33N 64°52' E 011°14'0 0.0
2014-Jul-15 11:33N 64°52' E 011°14'0 0.0
2014-Jul-15 10:33N 64°52' E 011°14'0 0.0
2014-Jul-15 09:33N 64°52' E 011°14'0 0.0
2014-Jul-15 08:33N 64°52' E 011°14'0 0.0
2014-Jul-15 07:34N 64°52' E 011°14'0 0.0
2014-Jul-15 06:33N 64°52' E 011°14'0 0.0
2014-Jul-15 05:33N 64°52' E 011°14'0 0.0
2014-Jul-15 04:34N 64°52' E 011°14'0 0.0
2014-Jul-15 03:33N 64°52' E 011°14'0 0.0
2014-Jul-15 02:33N 64°52' E 011°14'0 0.0
2014-Jul-15 01:33N 64°52' E 011°14'0 0.0
2014-Jul-15 00:33N 64°52' E 011°14'0 0.0
2014-Jul-14 23:33N 64°52' E 011°14'0 0.0
2014-Jul-14 22:33N 64°52' E 011°14'0 0.0
2014-Jul-14 21:34N 64°52' E 011°14'0 0.0
2014-Jul-14 20:33N 64°52' E 011°14'0 0.0
2014-Jul-14 19:34N 64°52' E 011°14'0 0.0
2014-Jul-14 18:33N 64°52' E 011°14'0 0.0
2014-Jul-14 17:34N 64°52' E 011°14'0 0.0
2014-Jul-14 16:33N 64°52' E 011°14'0 0.0
2014-Jul-14 15:33N 64°52' E 011°14'0 0.0
2014-Jul-14 14:33N 64°52' E 011°14'0 0.0
2014-Jul-14 13:33N 64°52' E 011°14'0 0.0
2014-Jul-14 12:33N 64°52' E 011°14'0 0.3
2014-Jul-14 11:33N 64°52' E 011°15'0 0.0
2014-Jul-14 10:33N 64°52' E 011°15'4 4.4
2014-Jul-14 09:33N 64°55' E 011°22'1110.8
2014-Jul-14 08:33N 65°02' E 011°41'1110.6
2014-Jul-14 07:31N 65°12' E 011°52'5510.9
2014-Jul-14 02:27N 66°04' E 012°39'16 8.2
2014-Jul-14 00:33N 66°18' E 012°56'1110.8
2014-Jul-13 23:33N 66°29' E 012°59'  

Dump ship's entire track history